createdAt,value
2022-11-09T00:01:05.202Z,98834.75
2022-11-09T00:03:32.095Z,98830.44
2022-11-09T00:05:59.815Z,98819.09
2022-11-09T00:08:26.560Z,98818.63
2022-11-09T00:10:53.128Z,98820.22
2022-11-09T00:13:19.996Z,98817.03
2022-11-09T00:15:46.741Z,98814.31
2022-11-09T00:18:13.249Z,98811.13
2022-11-09T00:20:44.498Z,98798.03
2022-11-09T00:23:13.726Z,98808.56
2022-11-09T00:25:40.270Z,98806.63
2022-11-09T00:28:06.834Z,98803.44
2022-11-09T00:30:33.340Z,98812.72
2022-11-09T00:32:59.836Z,98811.13
2022-11-09T00:35:26.761Z,98804.56
2022-11-09T00:37:53.328Z,98808.41
2022-11-09T00:40:19.944Z,98801.84
2022-11-09T00:42:46.463Z,98820.41
2022-11-09T00:45:12.973Z,98817.38
2022-11-09T00:47:39.466Z,98817.50
2022-11-09T00:50:06.542Z,98817.50
2022-11-09T00:52:33.180Z,98816.72
2022-11-09T00:54:59.891Z,98813.66
2022-11-09T00:57:26.550Z,98803.59
2022-11-09T00:59:54.184Z,98807.44
2022-11-09T01:02:20.738Z,98799.59
2022-11-09T01:04:47.261Z,98806.63
2022-11-09T01:07:13.812Z,98806.63
2022-11-09T01:09:40.404Z,98812.41
2022-11-09T01:12:07.077Z,98800.72
2022-11-09T01:14:33.588Z,98794.06
2022-11-09T01:17:00.150Z,98790.88
2022-11-09T01:19:26.799Z,98801.28
2022-11-09T01:21:53.365Z,98809.41
2022-11-09T01:24:19.873Z,98799.19
2022-11-09T01:26:46.545Z,98804.97
2022-11-09T01:29:13.091Z,98805.75
2022-11-09T01:31:39.633Z,98802.25
2022-11-09T01:34:06.218Z,98792.06
2022-11-09T01:36:32.759Z,98798.59
2022-11-09T01:38:59.257Z,98795.44
2022-11-09T01:41:28.032Z,98805.78
2022-11-09T01:44:11.392Z,98797.84
2022-11-09T01:46:40.723Z,98801.38
2022-11-09T01:49:15.185Z,98803.28
2022-11-09T01:51:45.818Z,98804.09
2022-11-09T01:54:26.148Z,98806.44
2022-11-09T01:56:57.469Z,98792.22
2022-11-09T01:59:31.385Z,98806.75
2022-11-09T02:02:00.211Z,98798.25
2022-11-09T02:04:33.041Z,98803.03
2022-11-09T02:07:00.192Z,98801.13
2022-11-09T02:09:45.763Z,98806.56
2022-11-09T02:12:12.508Z,98807.03
2022-11-09T02:14:39.294Z,98823.31
2022-11-09T02:17:06.863Z,98817.22
2022-11-09T02:19:33.479Z,98816.56
2022-11-09T02:22:00.173Z,98822.00
2022-11-09T02:24:27.544Z,98818.63
2022-11-09T02:26:54.624Z,98829.94
2022-11-09T02:29:28.093Z,98824.50
2022-11-09T02:31:59.341Z,98819.09
2022-11-09T02:34:25.983Z,98826.91
2022-11-09T02:36:52.920Z,98812.88
2022-11-09T02:39:24.837Z,98819.09
2022-11-09T02:42:01.463Z,98804.38
2022-11-09T02:44:32.029Z,98812.53
2022-11-09T02:46:58.558Z,98806.63
2022-11-09T02:49:25.053Z,98817.50
2022-11-09T02:51:51.589Z,98810.47
2022-11-09T02:54:18.142Z,98810.47
2022-11-09T02:56:44.709Z,98811.28
2022-11-09T02:59:11.259Z,98801.19
2022-11-09T03:01:37.851Z,98806.16
2022-11-09T03:04:04.525Z,98804.25
2022-11-09T03:06:36.714Z,98798.03
2022-11-09T03:09:06.416Z,98801.84
2022-11-09T03:11:33.456Z,98807.28
2022-11-09T03:13:59.965Z,98808.41
2022-11-09T03:16:26.543Z,98799.81
2022-11-09T03:18:53.168Z,98808.28
2022-11-09T03:21:19.892Z,98803.34
2022-11-09T03:23:46.735Z,98807.63
2022-11-09T03:26:13.261Z,98811.13
2022-11-09T03:28:39.960Z,98805.25
2022-11-09T03:31:06.809Z,98799.50
2022-11-09T03:33:33.522Z,98786.69
2022-11-09T03:36:00.602Z,98792.78
2022-11-09T03:38:27.164Z,98790.06
2022-11-09T03:40:53.674Z,98783.06
2022-11-09T03:43:20.539Z,98780.34
2022-11-09T03:45:48.072Z,98781.47
2022-11-09T03:48:14.599Z,98786.22
2022-11-09T03:50:41.165Z,98783.06
2022-11-09T03:53:12.023Z,98783.06
2022-11-09T03:55:39.831Z,98798.56
2022-11-09T03:58:08.051Z,98805.44
2022-11-09T04:00:36.158Z,98809.28
2022-11-09T04:03:02.902Z,98811.53
2022-11-09T04:05:29.404Z,98809.13
2022-11-09T04:07:57.746Z,98807.88
2022-11-09T04:10:26.090Z,98806.59
2022-11-09T04:12:53.294Z,98809.00
2022-11-09T04:15:19.878Z,98810.44
2022-11-09T04:17:55.059Z,98802.16
2022-11-09T04:20:21.605Z,98793.22
2022-11-09T04:22:57.977Z,98792.41
2022-11-09T04:25:26.189Z,98792.88
2022-11-09T04:27:57.258Z,98802.63
2022-11-09T04:30:24.690Z,98815.06
2022-11-09T04:32:51.239Z,98803.41
2022-11-09T04:35:17.777Z,98802.97
2022-11-09T04:37:44.446Z,98811.09
2022-11-09T04:40:11.716Z,98815.72
2022-11-09T04:42:38.223Z,98815.72
2022-11-09T04:45:05.199Z,98815.06
2022-11-09T04:47:31.707Z,98806.13
2022-11-09T04:49:58.213Z,98814.28
2022-11-09T04:52:24.818Z,98810.28
2022-11-09T04:54:51.331Z,98822.63
2022-11-09T04:57:17.830Z,98820.88
2022-11-09T04:59:44.362Z,98825.50
2022-11-09T05:02:10.901Z,98819.94
2022-11-09T05:04:37.405Z,98828.38
2022-11-09T05:07:04.018Z,98841.97
2022-11-09T05:09:30.579Z,98831.09
2022-11-09T05:11:57.325Z,98835.75
2022-11-09T05:14:23.864Z,98839.25
2022-11-09T05:16:50.566Z,98826.78
2022-11-09T05:19:17.291Z,98836.41
2022-11-09T05:21:43.883Z,98828.25
2022-11-09T05:24:10.733Z,98831.13
2022-11-09T05:26:41.919Z,98828.75
2022-11-09T05:29:12.813Z,98834.81
2022-11-09T05:31:40.352Z,98846.44
2022-11-09T05:34:07.543Z,98841.69
2022-11-09T05:36:34.161Z,98856.38
2022-11-09T05:39:01.287Z,98854.13
2022-11-09T05:41:28.199Z,98840.09
2022-11-09T05:43:54.887Z,98837.84
2022-11-09T05:46:21.461Z,98837.06
2022-11-09T05:48:48.114Z,98842.78
2022-11-09T05:51:15.298Z,98846.16
2022-11-09T05:53:46.156Z,98847.59
2022-11-09T05:56:13.444Z,98860.03
2022-11-09T05:58:41.412Z,98857.94
2022-11-09T06:01:16.066Z,98857.16
2022-11-09T06:03:44.322Z,98842.59
2022-11-09T06:06:14.175Z,98856.91
2022-11-09T06:08:40.898Z,98856.09
2022-11-09T06:11:10.229Z,98855.88
2022-11-09T06:13:37.190Z,98856.81
2022-11-09T06:16:05.185Z,98867.69
2022-11-09T06:18:33.474Z,98864.50
2022-11-09T06:21:02.231Z,98863.84
2022-11-09T06:23:30.238Z,98863.50
2022-11-09T06:26:01.458Z,98860.84
2022-11-09T06:28:28.536Z,98853.31
2022-11-09T06:30:59.781Z,98860.06
2022-11-09T06:33:26.941Z,98865.06
2022-11-09T06:35:56.316Z,98881.38
2022-11-09T06:38:23.538Z,98886.47
2022-11-09T06:40:54.117Z,98880.06
2022-11-09T06:43:21.142Z,98904.03
2022-11-09T06:45:48.008Z,98898.44
2022-11-09T06:48:14.646Z,98893.53
2022-11-09T06:50:41.374Z,98906.47
2022-11-09T06:53:11.192Z,98913.66
2022-11-09T06:55:38.050Z,98910.94
2022-11-09T06:58:15.847Z,98919.63
2022-11-09T07:00:44.006Z,98917.22
2022-11-09T07:03:18.309Z,98913.88
2022-11-09T07:05:45.800Z,98922.47
2022-11-09T07:08:13.331Z,98926.16
2022-11-09T07:10:40.299Z,98921.97
2022-11-09T07:13:07.283Z,98922.63
2022-11-09T07:15:35.390Z,98929.38
2022-11-09T07:18:04.189Z,98923.16
2022-11-09T07:20:31.532Z,98933.25
2022-11-09T07:22:58.109Z,98933.75
2022-11-09T07:25:27.210Z,98934.25
2022-11-09T07:27:54.108Z,98939.81
2022-11-09T07:30:20.625Z,98943.19
2022-11-09T07:33:07.941Z,98955.47
2022-11-09T07:35:33.730Z,98960.88
2022-11-09T07:38:01.799Z,98965.66
2022-11-09T07:40:28.714Z,98975.09
2022-11-09T07:42:59.337Z,98960.59
2022-11-09T07:45:26.122Z,98969.50
2022-11-09T07:48:02.440Z,98965.84
2022-11-09T07:50:30.594Z,98973.16
2022-11-09T07:52:59.232Z,98971.53
2022-11-09T07:55:27.140Z,98969.91
2022-11-09T07:57:58.655Z,98971.78
2022-11-09T08:00:26.497Z,98964.44
2022-11-09T08:02:53.570Z,98962.00
2022-11-09T08:05:20.345Z,98953.19
2022-11-09T08:07:47.067Z,98948.69
2022-11-09T08:10:14.439Z,98962.91
2022-11-09T08:12:40.983Z,98961.94
2022-11-09T08:15:08.068Z,98969.41
2022-11-09T08:17:34.626Z,98977.09
2022-11-09T08:20:01.152Z,98986.69
2022-11-09T08:22:27.718Z,98978.06
2022-11-09T08:24:54.255Z,98978.53
2022-11-09T08:27:22.852Z,98982.53
2022-11-09T08:29:49.437Z,98980.28
2022-11-09T08:32:15.981Z,98987.31
2022-11-09T08:34:47.139Z,98992.75
2022-11-09T08:37:13.804Z,98978.97
2022-11-09T08:39:40.352Z,98983.09
2022-11-09T08:42:06.875Z,98986.56
2022-11-09T08:44:33.389Z,98991.63
2022-11-09T08:46:59.925Z,98989.69
2022-11-09T08:49:26.446Z,98989.81
2022-11-09T08:51:53.036Z,98993.00
2022-11-09T08:54:19.609Z,98987.25
2022-11-09T08:56:46.480Z,98989.81
2022-11-09T08:59:13.033Z,98991.41
2022-11-09T09:01:39.665Z,98993.81
2022-11-09T09:04:06.300Z,98991.22
2022-11-09T09:06:33.005Z,98992.63
2022-11-09T09:08:59.589Z,99003.75
2022-11-09T09:11:26.156Z,99009.66
2022-11-09T09:13:52.689Z,99007.09
2022-11-09T09:16:19.288Z,99016.63
2022-11-09T09:18:48.368Z,99012.47
2022-11-09T09:21:15.083Z,99012.94
2022-11-09T09:23:41.599Z,99027.16
2022-11-09T09:26:08.341Z,99016.25
2022-11-09T09:28:34.930Z,99028.84
2022-11-09T09:31:02.307Z,99028.38
2022-11-09T09:33:29.378Z,99031.00
2022-11-09T09:35:57.830Z,99031.47
2022-11-09T09:38:25.470Z,99040.41
2022-11-09T09:40:58.232Z,99054.81
2022-11-09T09:43:47.357Z,99052.22
2022-11-09T09:46:41.515Z,99057.78
2022-11-09T09:49:15.057Z,99074.13
2022-11-09T09:52:01.181Z,99068.53
2022-11-09T09:54:33.925Z,99074.78
2022-11-09T09:57:02.023Z,99080.09
2022-11-09T09:59:43.106Z,99069.88
2022-11-09T10:02:31.045Z,99073.56
2022-11-09T10:05:00.407Z,99074.69
2022-11-09T10:07:49.611Z,99073.56
2022-11-09T10:10:39.761Z,99077.41
2022-11-09T10:13:24.749Z,99073.19
2022-11-09T10:16:13.217Z,99075.91
2022-11-09T10:18:58.608Z,99068.78
2022-11-09T10:21:50.049Z,99064.56
2022-11-09T10:24:28.647Z,99065.75
2022-11-09T10:26:57.398Z,99073.75
2022-11-09T10:29:24.159Z,99077.25
2022-11-09T10:31:53.359Z,99068.63
2022-11-09T10:34:26.400Z,99079.38
2022-11-09T10:37:06.192Z,99069.16
2022-11-09T10:39:49.540Z,99063.69
2022-11-09T10:42:16.108Z,99072.69
2022-11-09T10:44:42.670Z,99072.31
2022-11-09T10:47:13.113Z,99062.88
2022-11-09T10:49:40.790Z,99056.28
2022-11-09T10:52:32.139Z,99056.28
2022-11-09T10:55:17.364Z,99056.09
2022-11-09T10:57:57.637Z,99056.88
2022-11-09T11:00:24.856Z,99055.94
2022-11-09T11:02:52.767Z,99060.31
2022-11-09T11:05:19.309Z,99061.91
2022-11-09T11:07:46.573Z,99065.75
2022-11-09T11:10:16.064Z,99060.31
2022-11-09T11:12:53.445Z,99054.56
2022-11-09T11:15:25.463Z,99058.06
2022-11-09T11:18:00.337Z,99062.13
2022-11-09T11:20:28.867Z,99055.00
2022-11-09T11:23:25.888Z,99058.66
2022-11-09T11:25:55.583Z,99056.53
2022-11-09T11:28:32.074Z,99050.38
2022-11-09T11:30:58.735Z,99062.19
2022-11-09T11:33:26.250Z,99057.22
2022-11-09T11:35:56.566Z,99067.91
2022-11-09T11:38:32.050Z,99057.22
2022-11-09T11:41:09.363Z,99062.06
2022-11-09T11:43:56.529Z,99069.75
2022-11-09T11:46:41.509Z,99071.88
2022-11-09T11:49:41.532Z,99070.47
2022-11-09T11:52:51.108Z,99077.75
2022-11-09T11:55:20.462Z,99078.88
2022-11-09T11:58:05.107Z,99068.53
2022-11-09T12:00:39.555Z,99070.63
2022-11-09T12:03:16.831Z,99080.56
2022-11-09T12:06:19.432Z,99069.09
2022-11-09T12:08:55.694Z,99080.16
2022-11-09T12:11:46.718Z,99080.63
2022-11-09T12:14:22.447Z,99082.09
2022-11-09T12:17:07.381Z,99085.59
2022-11-09T12:19:54.022Z,99086.72
2022-11-09T12:23:02.440Z,99077.16
2022-11-09T12:25:31.973Z,99079.22
2022-11-09T12:28:22.827Z,99081.47
2022-11-09T12:31:10.705Z,99090.09
2022-11-09T12:33:46.243Z,99087.19
2022-11-09T12:36:18.968Z,99093.56
2022-11-09T12:38:52.582Z,99081.09
2022-11-09T12:41:24.036Z,99077.78
2022-11-09T12:44:17.126Z,99071.53
2022-11-09T12:46:50.116Z,99077.16
2022-11-09T12:49:40.960Z,99080.53
2022-11-09T12:52:11.339Z,99084.03
2022-11-09T12:54:45.698Z,99079.06
2022-11-09T12:57:21.035Z,99078.75
2022-11-09T12:59:52.077Z,99081.47
2022-11-09T13:02:27.720Z,99082.13
2022-11-09T13:04:56.825Z,99076.03
2022-11-09T13:07:32.058Z,99083.06
2022-11-09T13:10:01.712Z,99083.53
2022-11-09T13:12:35.752Z,99083.03
2022-11-09T13:15:26.607Z,99083.16
2022-11-09T13:17:58.135Z,99076.59
2022-11-09T13:24:04.462Z,99075.13
2022-11-09T13:26:32.408Z,99076.69
2022-11-09T13:29:24.777Z,99076.69
2022-11-09T13:32:05.333Z,99075.28
2022-11-09T13:34:48.843Z,99082.31
2022-11-09T13:37:43.300Z,99080.91
2022-11-09T13:40:31.832Z,99087.47
2022-11-09T13:43:14.495Z,99089.09
2022-11-09T13:45:53.081Z,99083.63
2022-11-09T13:48:48.003Z,99081.03
2022-11-09T13:51:22.439Z,99085.97
2022-11-09T13:53:48.906Z,99078.75
2022-11-09T13:56:27.946Z,99089.88
2022-11-09T13:59:07.654Z,99106.88
2022-11-09T14:01:45.471Z,99098.25
2022-11-09T14:04:25.950Z,99095.06
2022-11-09T14:07:01.517Z,99102.72
2022-11-09T14:09:32.293Z,99111.13
2022-11-09T14:12:13.987Z,99117.09
2022-11-09T14:14:55.454Z,99106.75
2022-11-09T14:17:29.380Z,99109.13
2022-11-09T14:20:17.779Z,99108.66
2022-11-09T14:22:44.558Z,99103.56
2022-11-09T14:25:15.330Z,99107.88
2022-11-09T14:27:57.428Z,99121.13
2022-11-09T14:30:29.657Z,99124.50
2022-11-09T14:32:58.664Z,99121.66
2022-11-09T14:35:35.159Z,99112.91
2022-11-09T14:38:18.680Z,99117.06
2022-11-09T14:40:47.908Z,99119.47
2022-11-09T14:43:25.905Z,99121.72
2022-11-09T14:46:01.372Z,99122.97
2022-11-09T14:48:29.834Z,99117.88
2022-11-09T14:50:59.783Z,99129.69
2022-11-09T14:53:35.832Z,99125.84
2022-11-09T14:56:06.831Z,99130.16
2022-11-09T14:58:36.120Z,99135.59
2022-11-09T15:01:25.778Z,99135.78
2022-11-09T15:04:14.017Z,99136.78
2022-11-09T15:06:51.582Z,99138.75
2022-11-09T15:09:33.850Z,99133.81
2022-11-09T15:12:01.025Z,99134.66
2022-11-09T15:14:36.416Z,99135.44
2022-11-09T15:17:23.852Z,99139.25
2022-11-09T15:19:57.418Z,99139.59
2022-11-09T15:22:53.397Z,99145.66
2022-11-09T15:25:41.637Z,99149.50
2022-11-09T15:28:14.200Z,99149.19
2022-11-09T15:30:46.239Z,99156.22
2022-11-09T15:33:24.300Z,99161.66
2022-11-09T15:35:55.846Z,99161.50
2022-11-09T15:38:36.792Z,99172.22
2022-11-09T15:41:09.634Z,99173.66
2022-11-09T15:43:36.832Z,99175.75
2022-11-09T15:46:04.676Z,99181.03
2022-11-09T15:48:31.762Z,99183.28
2022-11-09T15:50:58.478Z,99185.50
2022-11-09T15:53:26.146Z,99188.56
2022-11-09T15:55:52.685Z,99188.38
2022-11-09T15:58:19.728Z,99191.28
2022-11-09T16:00:46.742Z,99191.44
2022-11-09T16:03:13.717Z,99202.13
2022-11-09T16:05:40.233Z,99203.25
2022-11-09T16:08:08.073Z,99217.13
2022-11-09T16:10:37.937Z,99212.34
2022-11-09T16:13:06.443Z,99221.94
2022-11-09T16:15:35.256Z,99220.19
2022-11-09T16:18:02.478Z,99236.00
2022-11-09T16:20:29.301Z,99235.03
2022-11-09T16:22:56.167Z,99247.81
2022-11-09T16:25:22.914Z,99260.59
2022-11-09T16:27:51.295Z,99258.19
2022-11-09T16:30:19.423Z,99274.81
2022-11-09T16:32:46.206Z,99272.22
2022-11-09T16:35:26.798Z,99278.91
2022-11-09T16:37:55.407Z,99284.50
2022-11-09T16:40:22.800Z,99288.97
2022-11-09T16:42:49.438Z,99287.38
2022-11-09T16:45:17.157Z,99302.06
2022-11-09T16:47:49.336Z,99302.34
2022-11-09T16:50:16.560Z,99312.41
2022-11-09T16:52:43.234Z,99318.16
2022-11-09T16:55:10.259Z,99318.44
2022-11-09T16:57:36.921Z,99324.47
2022-11-09T17:00:07.888Z,99329.44
2022-11-09T17:02:35.082Z,99329.44
2022-11-09T17:05:01.708Z,99324.63
2022-11-09T17:07:28.640Z,99330.69
2022-11-09T17:09:55.264Z,99329.38
2022-11-09T17:12:22.048Z,99343.09
2022-11-09T17:14:48.563Z,99349.44
2022-11-09T17:17:21.186Z,99351.66
2022-11-09T17:19:49.105Z,99346.09
2022-11-09T17:22:15.910Z,99358.34
2022-11-09T17:24:42.462Z,99352.72
2022-11-09T17:27:09.826Z,99356.56
2022-11-09T17:29:39.800Z,99363.09
2022-11-09T17:32:10.281Z,99368.34
2022-11-09T17:34:36.885Z,99369.75
2022-11-09T17:37:05.227Z,99372.47
2022-11-09T17:39:32.700Z,99376.59
2022-11-09T17:41:59.262Z,99375.81
2022-11-09T17:44:25.809Z,99381.53
2022-11-09T17:46:52.358Z,99389.03
2022-11-09T17:49:18.887Z,99389.38
2022-11-09T17:51:45.621Z,99395.56
2022-11-09T17:54:12.302Z,99397.81
2022-11-09T17:56:39.073Z,99394.94
2022-11-09T17:59:05.876Z,99405.56
2022-11-09T18:01:37.794Z,99403.47
2022-11-09T18:04:11.204Z,99407.94
2022-11-09T18:06:38.363Z,99403.13
2022-11-09T18:11:52.010Z,99407.03
2022-11-09T18:14:18.776Z,99420.09
2022-11-09T18:16:45.407Z,99426.44
2022-11-09T18:19:12.236Z,99431.69
2022-11-09T18:21:39.031Z,99430.69
2022-11-09T18:24:05.904Z,99432.09
2022-11-09T18:26:32.891Z,99442.13
2022-11-09T18:29:00.377Z,99444.34
2022-11-09T18:31:27.140Z,99444.34
2022-11-09T18:33:54.173Z,99450.88
2022-11-09T18:36:21.641Z,99454.06
2022-11-09T18:38:51.139Z,99460.59
2022-11-09T18:41:21.872Z,99457.41
2022-11-09T18:43:49.682Z,99467.75
2022-11-09T18:46:18.267Z,99467.25
2022-11-09T18:48:45.273Z,99471.34
2022-11-09T18:51:12.752Z,99482.78
2022-11-09T18:53:42.253Z,99473.88
2022-11-09T18:56:18.247Z,99475.28
2022-11-09T18:58:46.167Z,99487.53
2022-11-09T19:01:13.017Z,99483.03
2022-11-09T19:03:39.693Z,99482.94
2022-11-09T19:06:08.466Z,99494.97
2022-11-09T19:08:53.709Z,99499.56
2022-11-09T19:11:20.293Z,99504.72
2022-11-09T19:13:46.906Z,99508.19
2022-11-09T19:16:14.328Z,99508.53
2022-11-09T19:18:41.089Z,99515.22
2022-11-09T19:21:27.888Z,99510.41
2022-11-09T19:23:54.839Z,99511.22
2022-11-09T19:26:22.497Z,99513.19
2022-11-09T19:28:49.042Z,99520.59
2022-11-09T19:31:17.486Z,99520.41
2022-11-09T19:33:44.035Z,99510.47
2022-11-09T19:38:57.983Z,99521.69
2022-11-09T19:41:25.629Z,99518.50
2022-11-09T19:43:54.767Z,99527.22
2022-11-09T19:46:21.822Z,99540.53
2022-11-09T19:48:48.583Z,99541.63
2022-11-09T19:51:16.585Z,99540.84
2022-11-09T19:53:52.325Z,99553.06
2022-11-09T19:56:20.262Z,99555.16
2022-11-09T19:58:52.075Z,99557.38
2022-11-09T20:01:19.110Z,99572.28
2022-11-09T20:03:50.384Z,99573.72
2022-11-09T20:06:17.459Z,99576.19
2022-11-09T20:08:44.243Z,99577.59
2022-11-09T20:11:34.001Z,99578.72
2022-11-09T20:14:00.549Z,99573.88
2022-11-09T20:16:27.557Z,99588.81
2022-11-09T20:18:54.598Z,99583.69
2022-11-09T20:21:21.243Z,99590.19
2022-11-09T20:23:47.792Z,99594.31
2022-11-09T20:26:14.525Z,99592.69
2022-11-09T20:28:41.056Z,99600.59
2022-11-09T20:31:16.875Z,99607.38
2022-11-09T20:33:43.539Z,99600.38
2022-11-09T20:36:10.141Z,99613.69
2022-11-09T20:38:36.731Z,99611.50
2022-11-09T20:41:06.067Z,99616.69
2022-11-09T20:43:33.025Z,99616.97
2022-11-09T20:46:04.631Z,99619.47
2022-11-09T20:48:52.917Z,99623.28
2022-11-09T20:51:19.609Z,99615.25
2022-11-09T20:53:47.442Z,99623.66
2022-11-09T20:56:14.866Z,99632.03
2022-11-09T20:58:41.464Z,99634.22
2022-11-09T21:01:24.825Z,99650.81
2022-11-09T21:03:52.952Z,99637.00
2022-11-09T21:06:21.161Z,99641.41
2022-11-09T21:08:52.533Z,99642.78
2022-11-09T21:11:20.008Z,99645.78
2022-11-09T21:13:53.881Z,99648.00
2022-11-09T21:16:22.228Z,99649.38
2022-11-09T21:18:48.983Z,99658.56
2022-11-09T21:21:18.324Z,99665.34
2022-11-09T21:24:03.551Z,99657.81
2022-11-09T21:26:48.762Z,99670.03
2022-11-09T21:29:39.172Z,99670.59
2022-11-09T21:32:07.068Z,99676.31
2022-11-09T21:34:36.726Z,99678.19
2022-11-09T21:37:03.882Z,99692.28
2022-11-09T21:39:30.382Z,99702.59
2022-11-09T21:41:57.365Z,99698.28
2022-11-09T21:44:23.942Z,99708.56
2022-11-09T21:46:50.547Z,99702.34
2022-11-09T21:49:17.198Z,99698.84
2022-11-09T21:51:43.727Z,99711.84
2022-11-09T21:54:10.572Z,99712.44
2022-11-09T21:56:37.220Z,99716.22
2022-11-09T21:59:04.462Z,99714.09
2022-11-09T22:01:31.433Z,99725.97
2022-11-09T22:03:58.109Z,99726.53
2022-11-09T22:06:25.675Z,99720.34
2022-11-09T22:08:52.208Z,99728.72
2022-11-09T22:11:44.017Z,99727.91
2022-11-09T22:14:34.427Z,99735.22
2022-11-09T22:17:01.573Z,99733.09
2022-11-09T22:19:46.944Z,99732.56
2022-11-09T22:22:14.760Z,99744.47
2022-11-09T22:24:41.562Z,99749.34
2022-11-09T22:27:08.772Z,99745.03
2022-11-09T22:29:35.400Z,99749.94
2022-11-09T22:32:02.193Z,99754.81
2022-11-09T22:34:28.729Z,99763.19
2022-11-09T22:36:55.303Z,99771.59
2022-11-09T22:39:21.892Z,99769.75
2022-11-09T22:41:48.734Z,99771.09
2022-11-09T22:44:15.485Z,99773.81
2022-11-09T22:46:42.038Z,99783.31
2022-11-09T22:49:08.628Z,99782.47
2022-11-09T22:51:35.309Z,99780.06
2022-11-09T22:54:01.915Z,99776.81
2022-11-09T22:56:28.444Z,99786.84
2022-11-09T22:58:54.956Z,99781.44
2022-11-09T23:01:21.594Z,99776.03
2022-11-09T23:03:48.171Z,99777.13
2022-11-09T23:06:17.643Z,99790.63
2022-11-09T23:08:44.124Z,99786.31
2022-11-09T23:11:22.171Z,99800.91
2022-11-09T23:13:53.700Z,99803.09
2022-11-09T23:16:21.602Z,99808.75
2022-11-09T23:18:54.553Z,99807.97
2022-11-09T23:21:26.223Z,99815.53
2022-11-09T23:23:54.434Z,99817.69
2022-11-09T23:26:22.753Z,99815.00
2022-11-09T23:28:49.373Z,99816.66
2022-11-09T23:31:19.544Z,99818.03
2022-11-09T23:33:50.938Z,99822.94
2022-11-09T23:36:18.128Z,99825.88
2022-11-09T23:38:44.782Z,99822.94
2022-11-09T23:41:12.441Z,99823.28
2022-11-09T23:43:39.389Z,99830.84
2022-11-09T23:46:08.372Z,99831.47
2022-11-09T23:48:35.101Z,99834.19
2022-11-09T23:51:02.589Z,99848.78
2022-11-09T23:53:30.521Z,99843.72
2022-11-09T23:56:09.076Z,99847.81
2022-11-09T23:58:36.392Z,99848.41
